Sunburst, Montana
Current Conditions -  °F | °C
As of 10:56 PM on Tuesday 21 Oct 2014 (Local Time) from KCTB Reporting Station
Clear Clear  
Wind Chill: 35°   Ceiling: Unl
Heat Index: 44°   Visibility: 10mi
Dew Point: 33°   Wind: 22mph
Humidity: 65%   Direction: 260°W
Pressure: 29.83"   Gusts: NA
Location:  48.88°N, 111.91°W
Report Text: KCTB 220456Z AUTO 26019KT 10SM CLR 07/01 A2983 RMK AO2 SLP101 T00670006
Loading
Personal Weather Stations






























Interactive Weather Map New forecast layout! Learn more

10-Day Weather Forecast

Advertisements
Track Severe Weather on mobile